createdAt,value
2023-04-12T00:00:18.400Z,94300.81
2023-04-12T00:02:54.299Z,94302.50
2023-04-12T00:05:41.416Z,94300.00
2023-04-12T00:08:21.414Z,94300.84
2023-04-12T00:11:16.429Z,94302.56
2023-04-12T00:14:03.408Z,94299.16
2023-04-12T00:16:38.205Z,94292.41
2023-04-12T00:19:24.514Z,94288.19
2023-04-12T00:21:57.646Z,94284.75
2023-04-12T00:24:48.424Z,94282.22
2023-04-12T00:27:21.509Z,94293.19
2023-04-12T00:30:09.427Z,94277.94
2023-04-12T00:32:42.603Z,94287.25
2023-04-12T00:35:29.521Z,94277.94
2023-04-12T00:38:03.830Z,94288.03
2023-04-12T00:40:50.412Z,94273.69
2023-04-12T00:43:27.636Z,94272.84
2023-04-12T00:46:14.460Z,94276.22
2023-04-12T00:48:48.382Z,94276.22
2023-04-12T00:51:39.433Z,94266.91
2023-04-12T00:54:13.519Z,94268.66
2023-04-12T00:57:00.447Z,94270.34
2023-04-12T00:59:55.432Z,94272.06
2023-04-12T01:02:45.675Z,94263.63
2023-04-12T01:05:28.471Z,94266.97
2023-04-12T01:08:17.433Z,94259.31
2023-04-12T01:11:10.441Z,94261.84
2023-04-12T01:14:36.420Z,94264.41
2023-04-12T01:17:27.493Z,94258.53
2023-04-12T01:20:13.809Z,94253.44
2023-04-12T01:23:18.454Z,94255.09
2023-04-12T01:25:54.578Z,94256.78
2023-04-12T01:28:44.455Z,94255.88
2023-04-12T01:31:26.458Z,94259.25
2023-04-12T01:34:23.447Z,94255.06
2023-04-12T01:37:11.431Z,94254.19
2023-04-12T01:39:45.548Z,94246.56
2023-04-12T01:42:32.477Z,94250.81
2023-04-12T01:45:05.550Z,94258.44
2023-04-12T01:47:52.491Z,94245.75
2023-04-12T01:50:41.072Z,94248.25
2023-04-12T01:53:34.445Z,94244.03
2023-04-12T01:56:14.605Z,94255.88
2023-04-12T01:59:02.409Z,94256.81
2023-04-12T02:01:36.879Z,94244.19
2023-04-12T02:04:24.447Z,94227.34
2023-04-12T02:06:57.595Z,94220.59
2023-04-12T02:09:45.466Z,94220.59
2023-04-12T02:12:25.458Z,94225.66
2023-04-12T02:15:14.464Z,94221.50
2023-04-12T02:17:47.608Z,94218.94
2023-04-12T02:20:35.486Z,94218.09
2023-04-12T02:23:15.474Z,94213.03
2023-04-12T02:26:02.452Z,94218.09
2023-04-12T02:28:37.266Z,94216.44
2023-04-12T02:31:25.461Z,94213.91
2023-04-12T02:33:58.853Z,94222.34
2023-04-12T02:36:45.465Z,94226.59
2023-04-12T02:39:25.454Z,94227.44
2023-04-12T02:42:20.479Z,94223.19
2023-04-12T02:45:07.468Z,94233.34
2023-04-12T02:47:41.714Z,94244.31
2023-04-12T02:50:28.475Z,94243.50
2023-04-12T02:53:01.595Z,94254.50
2023-04-12T02:55:48.475Z,94251.19
2023-04-12T02:58:21.627Z,94250.31
2023-04-12T03:01:08.497Z,94249.50
2023-04-12T03:03:41.963Z,94267.28
2023-04-12T03:06:28.489Z,94254.63
2023-04-12T03:09:08.474Z,94257.97
2023-04-12T03:12:02.524Z,94253.78
2023-04-12T03:14:49.484Z,94254.63
2023-04-12T03:17:22.630Z,94258.00
2023-04-12T03:20:16.517Z,94272.41
2023-04-12T03:22:49.583Z,94255.56
2023-04-12T03:25:36.498Z,94260.59
2023-04-12T03:28:09.578Z,94263.13
2023-04-12T03:30:56.515Z,94273.25
2023-04-12T03:33:29.618Z,94267.34
2023-04-12T03:36:17.463Z,94267.34
2023-04-12T03:38:50.996Z,94271.59
2023-04-12T03:41:37.506Z,94282.56
2023-04-12T03:44:10.957Z,94276.66
2023-04-12T03:46:57.503Z,94266.53
2023-04-12T03:49:37.482Z,94265.66
2023-04-12T03:52:24.497Z,94264.81
2023-04-12T03:54:57.801Z,94269.84
2023-04-12T03:57:51.527Z,94259.75
2023-04-12T04:00:45.508Z,94269.03
2023-04-12T04:03:41.688Z,94259.75
2023-04-12T04:06:36.520Z,94253.81
2023-04-12T04:09:24.500Z,94269.84
2023-04-12T04:11:57.871Z,94260.53
2023-04-12T04:14:44.510Z,94265.63
2023-04-12T04:17:17.591Z,94266.44
2023-04-12T04:20:04.489Z,94269.81
2023-04-12T04:22:38.355Z,94268.97
2023-04-12T04:25:26.504Z,94273.16
2023-04-12T04:27:59.751Z,94272.31
2023-04-12T04:30:46.537Z,94283.31
2023-04-12T04:33:21.178Z,94285.84
2023-04-12T04:36:08.499Z,94270.63
2023-04-12T04:38:49.515Z,94276.50
2023-04-12T04:41:45.507Z,94284.09
2023-04-12T04:44:32.520Z,94290.88
2023-04-12T04:47:06.951Z,94291.66
2023-04-12T04:49:54.533Z,94290.88
2023-04-12T04:52:34.531Z,94283.22
2023-04-12T04:55:28.538Z,94290.84
2023-04-12T04:58:22.527Z,94286.59
2023-04-12T05:01:09.582Z,94298.44
2023-04-12T05:03:44.784Z,94298.44
2023-04-12T05:06:31.515Z,94295.03
2023-04-12T05:09:05.385Z,94295.88
2023-04-12T05:11:53.513Z,94296.66
2023-04-12T05:14:41.257Z,94295.81
2023-04-12T05:17:32.553Z,94299.19
2023-04-12T05:20:10.785Z,94300.03
2023-04-12T05:22:57.588Z,94302.56
2023-04-12T05:25:30.879Z,94305.94
2023-04-12T05:28:20.526Z,94306.78
2023-04-12T05:30:53.670Z,94308.47
2023-04-12T05:33:41.557Z,94308.50
2023-04-12T05:36:21.539Z,94308.47
2023-04-12T05:39:15.526Z,94311.88
2023-04-12T05:42:09.545Z,94312.69
2023-04-12T05:44:57.536Z,94320.34
2023-04-12T05:47:30.694Z,94308.50
2023-04-12T05:50:17.560Z,94312.69
2023-04-12T05:52:50.674Z,94307.66
2023-04-12T05:55:38.207Z,94311.03
2023-04-12T05:58:11.829Z,94308.47
2023-04-12T06:01:00.525Z,94313.56
2023-04-12T06:03:40.683Z,94310.94
2023-04-12T06:06:36.541Z,94309.28
2023-04-12T06:09:23.583Z,94312.69
2023-04-12T06:12:03.605Z,94302.59
2023-04-12T06:14:57.569Z,94308.53
2023-04-12T06:17:51.576Z,94310.19
2023-04-12T06:20:38.536Z,94311.88
2023-04-12T06:23:11.664Z,94316.94
2023-04-12T06:25:59.580Z,94307.63
2023-04-12T06:28:32.675Z,94301.72
2023-04-12T06:31:19.606Z,94304.25
2023-04-12T06:33:52.942Z,94305.91
2023-04-12T06:36:39.561Z,94306.72
2023-04-12T06:39:12.658Z,94308.41
2023-04-12T06:41:59.581Z,94302.47
2023-04-12T06:44:33.565Z,94313.44
2023-04-12T06:47:20.685Z,94315.91
2023-04-12T06:49:56.273Z,94317.56
2023-04-12T06:52:43.563Z,94320.09
2023-04-12T06:55:16.664Z,94325.94
2023-04-12T06:58:10.584Z,94331.00
2023-04-12T07:01:04.610Z,94326.72
2023-04-12T07:03:58.685Z,94330.88
2023-04-12T07:06:52.585Z,94329.09
2023-04-12T07:09:46.622Z,94335.75
2023-04-12T07:12:33.549Z,94341.56
2023-04-12T07:15:06.755Z,94338.91
2023-04-12T07:17:53.595Z,94338.00
2023-04-12T07:20:27.116Z,94343.03
2023-04-12T07:23:13.584Z,94346.47
2023-04-12T07:25:46.667Z,94346.47
2023-04-12T07:28:33.577Z,94340.59
2023-04-12T07:31:06.957Z,94338.91
2023-04-12T07:33:53.649Z,94340.50
2023-04-12T07:36:27.170Z,94340.31
2023-04-12T07:39:13.592Z,94337.66
2023-04-12T07:41:49.718Z,94336.81
2023-04-12T07:44:38.838Z,94337.63
2023-04-12T07:47:12.751Z,94329.03
2023-04-12T07:49:59.598Z,94327.34
2023-04-12T07:52:32.786Z,94332.28
2023-04-12T07:55:19.614Z,94327.88
2023-04-12T07:57:59.595Z,94326.06
2023-04-12T08:00:57.997Z,94327.53
2023-04-12T08:03:45.766Z,94334.28
2023-04-12T08:06:18.810Z,94330.84
2023-04-12T08:09:05.598Z,94326.50
2023-04-12T08:11:38.769Z,94327.16
2023-04-12T08:14:25.611Z,94328.78
2023-04-12T08:16:58.696Z,94329.63
2023-04-12T08:19:45.605Z,94333.13
2023-04-12T08:22:25.590Z,94330.53
2023-04-12T08:25:13.599Z,94335.72
2023-04-12T08:27:56.639Z,94338.31
2023-04-12T08:30:50.592Z,94336.66
2023-04-12T08:33:37.610Z,94341.63
2023-04-12T08:36:11.196Z,94340.69
2023-04-12T08:38:58.597Z,94335.63
2023-04-12T08:41:39.127Z,94335.53
2023-04-12T08:44:33.604Z,94333.81
2023-04-12T08:47:20.620Z,94330.38
2023-04-12T08:50:00.594Z,94334.56
2023-04-12T08:52:54.596Z,94329.25
2023-04-12T08:55:48.611Z,94324.63
2023-04-12T08:58:43.627Z,94324.81
2023-04-12T09:01:30.654Z,94311.81
2023-04-12T09:04:04.109Z,94320.13
2023-04-12T09:06:51.609Z,94319.44
2023-04-12T09:09:24.702Z,94318.34
2023-04-12T09:12:15.620Z,94321.44
2023-04-12T09:14:48.797Z,94324.56
2023-04-12T09:17:35.677Z,94320.88
2023-04-12T09:20:32.622Z,94314.69
2023-04-12T09:23:44.622Z,94314.53
2023-04-12T09:26:35.632Z,94308.56
2023-04-12T09:29:09.926Z,94311.81
2023-04-12T09:32:12.602Z,94315.06
2023-04-12T09:35:08.615Z,94308.31
2023-04-12T09:38:04.632Z,94315.09
2023-04-12T09:40:44.608Z,94314.28
2023-04-12T09:43:53.639Z,94312.50
2023-04-12T09:46:56.746Z,94308.09
2023-04-12T09:49:42.845Z,94312.25
2023-04-12T09:52:31.335Z,94312.25
2023-04-12T09:55:12.613Z,94315.97
2023-04-12T09:58:08.623Z,94322.19
2023-04-12T10:01:02.659Z,94317.72
2023-04-12T10:03:56.854Z,94313.00
2023-04-12T10:06:43.682Z,94307.34
2023-04-12T10:09:17.716Z,94314.97
2023-04-12T10:12:06.630Z,94323.53
2023-04-12T10:14:39.681Z,94318.53
2023-04-12T10:17:26.724Z,94315.34
2023-04-12T10:20:00.817Z,94316.28
2023-04-12T10:22:58.640Z,94315.31
2023-04-12T10:25:41.664Z,94325.34
2023-04-12T10:28:35.645Z,94323.53
2023-04-12T10:31:39.701Z,94323.59
2023-04-12T10:34:13.767Z,94321.06
2023-04-12T10:37:07.728Z,94316.91
2023-04-12T10:39:42.978Z,94325.34
2023-04-12T10:42:37.693Z,94310.06
2023-04-12T10:45:43.809Z,94314.63
2023-04-12T10:48:57.794Z,94308.63
2023-04-12T10:51:33.276Z,94313.44
2023-04-12T10:54:25.688Z,94304.81
2023-04-12T10:57:05.698Z,94303.34
2023-04-12T11:00:07.672Z,94305.91
2023-04-12T11:03:21.725Z,94304.97
2023-04-12T11:06:27.056Z,94304.06
2023-04-12T11:09:25.664Z,94294.59
2023-04-12T11:12:21.081Z,94300.28
2023-04-12T11:15:10.681Z,94295.91
2023-04-12T11:17:43.855Z,94304.31
2023-04-12T11:20:33.669Z,94301.56
2023-04-12T11:23:10.617Z,94300.53
2023-04-12T11:26:00.692Z,94304.44
2023-04-12T11:28:35.947Z,94293.84
2023-04-12T11:31:27.742Z,94299.53
2023-04-12T11:34:01.077Z,94290.78
2023-04-12T11:36:48.766Z,94289.88
2023-04-12T11:39:21.922Z,94286.16
2023-04-12T11:42:09.693Z,94279.91
2023-04-12T11:44:56.012Z,94277.38
2023-04-12T11:47:38.743Z,94269.31
2023-04-12T11:50:48.366Z,94279.06
2023-04-12T11:53:45.696Z,94274.75
2023-04-12T11:56:33.691Z,94274.22
2023-04-12T11:59:06.988Z,94272.03
2023-04-12T12:01:57.737Z,94277.31
2023-04-12T12:04:31.935Z,94264.06
2023-04-12T12:07:21.552Z,94261.56
2023-04-12T12:10:03.797Z,94257.22
2023-04-12T12:12:57.814Z,94261.19
2023-04-12T12:15:54.789Z,94253.22
2023-04-12T12:18:53.672Z,94251.47
2023-04-12T12:21:40.697Z,94252.09
2023-04-12T12:24:21.683Z,94244.09
2023-04-12T12:27:09.736Z,94242.91
2023-04-12T12:29:51.684Z,94240.13
2023-04-12T12:32:43.750Z,94239.13
2023-04-12T12:35:19.438Z,94233.69
2023-04-12T12:38:06.683Z,94241.19
2023-04-12T12:40:40.568Z,94241.44
2023-04-12T12:43:27.693Z,94230.09
2023-04-12T12:46:07.894Z,94229.75
2023-04-12T12:48:48.735Z,94221.03
2023-04-12T12:51:35.682Z,94225.88
2023-04-12T12:54:40.544Z,94224.28
2023-04-12T12:57:27.699Z,94217.72
2023-04-12T13:00:01.192Z,94211.53
2023-04-12T13:02:51.086Z,94215.69
2023-04-12T13:05:31.738Z,94208.00
2023-04-12T13:08:18.717Z,94198.72
2023-04-12T13:10:58.699Z,94201.28
2023-04-12T13:13:52.727Z,94194.75
2023-04-12T13:16:39.754Z,94195.69
2023-04-12T13:19:19.723Z,94193.25
2023-04-12T13:22:13.711Z,94182.34
2023-04-12T13:25:01.781Z,94185.88
2023-04-12T13:27:34.858Z,94188.50
2023-04-12T13:30:21.730Z,94179.41
2023-04-12T13:32:55.322Z,94180.31
2023-04-12T13:35:41.723Z,94179.53
2023-04-12T13:38:21.732Z,94171.59
2023-04-12T13:41:08.790Z,94174.72
2023-04-12T13:43:48.771Z,94179.69
2023-04-12T13:46:42.774Z,94178.56
2023-04-12T13:49:36.775Z,94174.91
2023-04-12T13:52:23.799Z,94175.56
2023-04-12T13:54:57.888Z,94172.88
2023-04-12T13:57:44.779Z,94164.28
2023-04-12T14:00:19.615Z,94158.28
2023-04-12T14:03:06.898Z,94158.28
2023-04-12T14:05:46.777Z,94159.25
2023-04-12T14:08:41.726Z,94166.91
2023-04-12T14:11:38.777Z,94165.44
2023-04-12T14:14:32.798Z,94166.47
2023-04-12T14:17:19.928Z,94164.84
2023-04-12T14:19:52.910Z,94170.00
2023-04-12T14:22:39.745Z,94166.75
2023-04-12T14:25:13.948Z,94164.22
2023-04-12T14:28:00.782Z,94172.00
2023-04-12T14:30:33.876Z,94167.81
2023-04-12T14:33:13.791Z,94163.56
2023-04-12T14:35:53.886Z,94163.69
2023-04-12T14:38:35.800Z,94166.31
2023-04-12T14:41:15.770Z,94159.66
2023-04-12T14:43:57.055Z,94166.50
2023-04-12T14:46:50.832Z,94162.41
2023-04-12T14:49:37.794Z,94164.09
2023-04-12T14:52:17.802Z,94162.56
2023-04-12T14:55:04.779Z,94164.34
2023-04-12T14:57:44.775Z,94161.81
2023-04-12T15:00:38.777Z,94160.16
2023-04-12T15:03:32.848Z,94160.16
2023-04-12T15:06:27.799Z,94156.00
2023-04-12T15:09:19.788Z,94155.22
2023-04-12T15:12:07.795Z,94157.00
2023-04-12T15:15:06.214Z,94152.06
2023-04-12T15:17:52.829Z,94153.13
2023-04-12T15:20:25.908Z,94154.09
2023-04-12T15:23:15.799Z,94147.38
2023-04-12T15:25:55.799Z,94158.41
2023-04-12T15:28:49.845Z,94153.28
2023-04-12T15:31:36.785Z,94148.38
2023-04-12T15:34:16.777Z,94151.78
2023-04-12T15:37:11.830Z,94147.59
2023-04-12T15:39:59.846Z,94146.84
2023-04-12T15:42:39.805Z,94150.28
2023-04-12T15:45:33.833Z,94142.72
2023-04-12T15:48:20.810Z,94149.56
2023-04-12T15:51:02.806Z,94147.06
2023-04-12T15:53:57.537Z,94146.28
2023-04-12T15:56:44.880Z,94144.59
2023-04-12T15:59:18.840Z,94139.56
2023-04-12T16:02:08.638Z,94138.78
2023-04-12T16:04:50.859Z,94140.56
2023-04-12T16:07:47.859Z,94140.69
2023-04-12T16:10:34.786Z,94140.88
2023-04-12T16:13:10.220Z,94140.91
2023-04-12T16:15:56.855Z,94141.91
2023-04-12T16:18:37.804Z,94141.16
2023-04-12T16:21:32.804Z,94141.25
2023-04-12T16:24:20.802Z,94141.44
2023-04-12T16:27:00.837Z,94137.31
2023-04-12T16:29:54.799Z,94131.50
2023-04-12T16:32:42.805Z,94130.00
2023-04-12T16:35:16.487Z,94133.56
2023-04-12T16:38:02.804Z,94132.03
2023-04-12T16:40:35.951Z,94138.13
2023-04-12T16:43:23.838Z,94134.00
2023-04-12T16:45:56.926Z,94135.81
2023-04-12T16:48:47.877Z,94132.56
2023-04-12T16:51:21.126Z,94139.50
2023-04-12T16:54:07.861Z,94137.13
2023-04-12T16:56:47.856Z,94143.09
2023-04-12T16:59:41.850Z,94146.63
2023-04-12T17:02:28.944Z,94148.44
2023-04-12T17:05:10.878Z,94142.63
2023-04-12T17:08:05.895Z,94143.63
2023-04-12T17:11:00.813Z,94148.00
2023-04-12T17:13:50.785Z,94146.44
2023-04-12T17:16:24.853Z,94137.22
2023-04-12T17:19:11.864Z,94139.03
2023-04-12T17:21:55.848Z,94135.72
2023-04-12T17:24:49.848Z,94139.19
2023-04-12T17:27:43.849Z,94143.53
2023-04-12T17:30:19.036Z,94139.38
2023-04-12T17:33:07.937Z,94144.53
2023-04-12T17:35:42.197Z,94146.28
2023-04-12T17:38:28.918Z,94145.56
2023-04-12T17:41:02.476Z,94145.63
2023-04-12T17:43:48.886Z,94148.31
2023-04-12T17:46:23.160Z,94143.31
2023-04-12T17:49:11.877Z,94145.13
2023-04-12T17:51:44.964Z,94157.09
2023-04-12T17:54:31.878Z,94150.44
2023-04-12T17:57:04.973Z,94159.84
2023-04-12T17:59:58.877Z,94156.56
2023-04-12T18:02:59.003Z,94149.94
2023-04-12T18:05:45.919Z,94145.00
2023-04-12T18:08:19.158Z,94142.53
2023-04-12T18:11:06.922Z,94142.63
2023-04-12T18:13:40.006Z,94135.09
2023-04-12T18:16:26.960Z,94139.41
2023-04-12T18:19:01.302Z,94141.19
2023-04-12T18:21:47.908Z,94148.03
2023-04-12T18:24:21.966Z,94143.84
2023-04-12T18:27:10.885Z,94154.06
2023-04-12T18:29:43.991Z,94146.50
2023-04-12T18:32:30.916Z,94151.59
2023-04-12T18:35:05.055Z,94150.00
2023-04-12T18:37:51.936Z,94155.13
2023-04-12T18:40:25.018Z,94156.03
2023-04-12T18:43:12.885Z,94154.44
2023-04-12T18:45:47.072Z,94150.25
2023-04-12T18:48:33.906Z,94156.19
2023-04-12T18:51:07.421Z,94148.66
2023-04-12T18:53:54.903Z,94147.88
2023-04-12T18:56:35.018Z,94143.75
2023-04-12T18:59:28.988Z,94149.69
2023-04-12T19:02:16.917Z,94147.25
2023-04-12T19:04:51.321Z,94140.53
2023-04-12T19:07:38.891Z,94141.47
2023-04-12T19:10:13.323Z,94144.88
2023-04-12T19:13:01.055Z,94143.22
2023-04-12T19:15:35.244Z,94143.28
2023-04-12T19:18:24.642Z,94150.13
2023-04-12T19:21:07.391Z,94148.47
2023-04-12T19:24:01.645Z,94148.56
2023-04-12T19:26:55.104Z,94148.63
2023-04-12T19:29:29.300Z,94151.19
2023-04-12T19:32:18.908Z,94151.19
2023-04-12T19:34:54.347Z,94148.69
2023-04-12T19:37:42.922Z,94151.22
2023-04-12T19:40:19.215Z,94148.69
2023-04-12T19:43:06.930Z,94138.59
2023-04-12T19:45:41.423Z,94135.25
2023-04-12T19:48:28.921Z,94133.63
2023-04-12T19:51:04.460Z,94137.03
2023-04-12T19:53:54.930Z,94137.94
2023-04-12T19:56:37.933Z,94131.22
2023-04-12T19:59:33.934Z,94137.13
2023-04-12T20:02:20.994Z,94144.75
2023-04-12T20:05:03.996Z,94138.03
2023-04-12T20:07:51.964Z,94139.78
2023-04-12T20:10:26.249Z,94146.56
2023-04-12T20:13:44.943Z,94142.41
2023-04-12T20:16:25.960Z,94139.06
2023-04-12T20:19:19.956Z,94139.94
2023-04-12T20:22:09.966Z,94141.63
2023-04-12T20:24:43.080Z,94128.16
2023-04-12T20:27:32.306Z,94130.72
2023-04-12T20:30:06.069Z,94132.41
2023-04-12T20:32:54.064Z,94137.50
2023-04-12T20:35:28.195Z,94137.53
2023-04-12T20:38:14.944Z,94134.16
2023-04-12T20:40:48.074Z,94131.63
2023-04-12T20:43:34.945Z,94135.00
2023-04-12T20:46:14.599Z,94136.69
2023-04-12T20:49:02.936Z,94135.88
2023-04-12T20:51:36.021Z,94128.28
2023-04-12T20:54:22.953Z,94131.66
2023-04-12T20:57:05.042Z,94132.53
2023-04-12T20:59:59.914Z,94130.03
2023-04-12T21:02:54.102Z,94128.34
2023-04-12T21:05:40.945Z,94132.56
2023-04-12T21:08:20.935Z,94127.53
2023-04-12T21:11:14.985Z,94119.13
2023-04-12T21:14:01.940Z,94123.38
2023-04-12T21:16:44.962Z,94122.53
2023-04-12T21:19:38.975Z,94125.09
2023-04-12T21:22:25.926Z,94124.28
2023-04-12T21:25:05.917Z,94121.75
2023-04-12T21:27:53.943Z,94125.09
2023-04-12T21:30:27.108Z,94118.38
2023-04-12T21:33:14.991Z,94111.66
2023-04-12T21:35:55.078Z,94106.63
2023-04-12T21:38:48.941Z,94112.50
2023-04-12T21:41:35.942Z,94112.53
2023-04-12T21:44:18.939Z,94117.59
2023-04-12T21:47:05.984Z,94114.25
2023-04-12T21:49:45.948Z,94121.00
2023-04-12T21:52:39.938Z,94119.31
2023-04-12T21:55:27.942Z,94121.84
2023-04-12T21:58:01.027Z,94113.44
2023-04-12T22:00:48.021Z,94110.94
2023-04-12T22:03:21.522Z,94107.56
2023-04-12T22:06:07.946Z,94107.59
2023-04-12T22:08:44.114Z,94104.22
2023-04-12T22:11:30.999Z,94100.00
2023-04-12T22:14:05.212Z,94099.19
2023-04-12T22:16:52.015Z,94102.53
2023-04-12T22:19:25.261Z,94095.81
2023-04-12T22:22:11.983Z,94092.44
2023-04-12T22:24:51.960Z,94090.78
2023-04-12T22:27:45.943Z,94095.84
2023-04-12T22:30:33.985Z,94095.81
2023-04-12T22:33:15.011Z,94091.63
2023-04-12T22:36:08.983Z,94089.09
2023-04-12T22:38:56.013Z,94092.47
2023-04-12T22:41:35.252Z,94094.16
2023-04-12T22:44:23.920Z,94083.22
2023-04-12T22:47:00.150Z,94073.16
2023-04-12T22:49:56.995Z,94075.66
2023-04-12T22:52:30.673Z,94078.16
2023-04-12T22:55:25.001Z,94078.19
2023-04-12T22:57:58.055Z,94071.47
2023-04-12T23:00:51.953Z,94079.03
2023-04-12T23:03:48.043Z,94075.66
2023-04-12T23:06:37.024Z,94079.03
2023-04-12T23:09:10.077Z,94066.44
2023-04-12T23:11:57.995Z,94071.47
2023-04-12T23:14:37.976Z,94071.47
2023-04-12T23:17:33.139Z,94074.84
2023-04-12T23:20:20.988Z,94072.28
2023-04-12T23:22:57.761Z,94062.22
2023-04-12T23:25:47.953Z,94060.53
2023-04-12T23:28:24.369Z,94058.84
2023-04-12T23:31:14.014Z,94048.78
2023-04-12T23:33:47.275Z,94048.78
2023-04-12T23:36:34.037Z,94051.31
2023-04-12T23:39:08.636Z,94045.41
2023-04-12T23:41:55.006Z,94041.22
2023-04-12T23:44:28.213Z,94041.22
2023-04-12T23:47:15.020Z,94038.72
2023-04-12T23:49:48.091Z,94037.03
2023-04-12T23:52:35.013Z,94033.66
2023-04-12T23:55:08.542Z,94023.56
2023-04-12T23:57:54.980Z,94020.22
